Time;durP1;ratioP1;P1;durP2;ratioP2;P2;SDS_P1;SDS_P2;PMS_P1;PMS_P2;Temp;Humidity;BMP_temperature;BMP_pressure;BME280_temperature;BME280_humidity;BME280_pressure;Samples;Min_cycle;Max_cycle;Signal;HPM_P1;HPM_P2
2022/05/07 00:01:57;;;;;;;1.33;1.23;;;;;;;11.60;53.59;94921.25;2617209;54;20148;-82
2022/05/07 00:04:27;;;;;;;1.20;1.20;;;;;;;11.42;53.86;94917.78;2617022;47;20179;-82
2022/05/07 00:06:56;;;;;;;3.40;0.93;;;;;;;11.48;53.01;94906.66;2617059;47;20188;-82
2022/05/07 00:09:31;;;;;;;1.30;1.27;;;;;;;11.46;52.71;94915.09;2617827;54;20187;-82
2022/05/07 00:12:27;;;;;;;1.73;1.53;;;;;;;11.15;53.34;94882.16;2617480;39;20534;-82
2022/05/07 00:14:56;;;;;;;1.70;1.60;;;;;;;11.07;54.00;94896.78;2617096;54;20280;-82
2022/05/07 00:20:11;;;;;;;1.47;1.47;;;;;;;11.06;54.02;94909.50;2616539;54;20270;-82
2022/05/07 00:22:40;;;;;;;0.93;0.93;;;;;;;11.08;53.60;94901.06;2617109;47;20168;-81
2022/05/07 00:25:09;;;;;;;1.57;1.47;;;;;;;10.94;53.64;94889.22;2616781;47;20172;-82
2022/05/07 00:27:40;;;;;;;0.83;0.83;;;;;;;11.02;53.50;94904.44;2616776;54;20153;-78
2022/05/07 00:30:16;;;;;;;1.53;1.43;;;;;;;10.94;53.90;94909.78;2616626;47;20157;-78
2022/05/07 00:32:48;;;;;;;1.43;1.33;;;;;;;10.73;53.92;94879.31;2616502;47;20157;-82
2022/05/07 00:35:17;;;;;;;1.13;1.13;;;;;;;10.85;54.02;94904.50;2616391;54;20165;-82
2022/05/07 00:37:46;;;;;;;3.33;1.60;;;;;;;10.79;54.02;94902.19;2616883;54;20164;-82
2022/05/07 00:40:15;;;;;;;1.20;1.20;;;;;;;10.77;54.11;94907.78;2616818;54;20149;-82
2022/05/07 00:42:46;;;;;;;1.37;1.27;;;;;;;10.50;53.65;94841.00;2616996;54;20149;-83
2022/05/07 00:45:15;;;;;;;1.00;1.00;;;;;;;10.77;54.10;94904.22;2616873;54;20171;-82
2022/05/07 00:47:44;;;;;;;1.30;1.07;;;;;;;10.64;54.18;94906.63;2616900;47;20145;-82
2022/05/07 00:52:55;;;;;;;1.70;1.60;;;;;;;10.26;53.40;94854.25;2616939;54;20183;-78
2022/05/07 00:55:26;;;;;;;0.97;0.97;;;;;;;10.53;54.15;94898.41;2616614;47;20169;-78
2022/05/07 00:57:58;;;;;;;4.63;1.30;;;;;;;10.59;53.33;94890.88;2616996;47;20161;-78
2022/05/07 01:00:27;;;;;;;1.27;1.27;;;;;;;10.48;53.08;94880.56;2616971;47;20160;-78
2022/05/07 01:03:00;;;;;;;1.50;1.40;;;;;;;10.63;53.32;94893.84;2616993;54;20157;-83
2022/05/07 01:05:35;;;;;;;1.27;1.23;;;;;;;10.70;52.14;94891.94;2616987;54;20161;-82
2022/05/07 01:08:04;;;;;;;1.47;1.37;;;;;;;10.67;52.21;94896.81;2616794;47;20199;-82
2022/05/07 01:10:41;;;;;;;1.70;1.60;;;;;;;10.37;52.05;94850.44;2617044;47;20168;-81
2022/05/07 01:13:12;;;;;;;1.97;1.87;;;;;;;10.56;52.22;94883.66;2616802;54;20156;-78
2022/05/07 01:15:48;;;;;;;0.77;0.77;;;;;;;10.60;52.31;94886.66;2617514;47;20169;-78
2022/05/07 01:18:24;;;;;;;1.10;1.00;;;;;;;10.70;52.52;94911.78;2618098;39;20578;-78
2022/05/07 01:20:53;;;;;;;1.03;1.03;;;;;;;10.58;51.82;94902.84;2617539;54;20161;-82
2022/05/07 01:23:26;;;;;;;1.10;1.10;;;;;;;10.33;51.78;94864.44;2617740;54;20283;-82
2022/05/07 01:26:07;;;;;;;0.90;0.80;;;;;;;10.28;51.46;94857.88;2617548;47;20161;-82
2022/05/07 01:28:37;;;;;;;4.03;1.00;;;;;;;10.50;51.58;94900.47;2617289;54;20156;-82
2022/05/07 01:31:06;;;;;;;0.97;0.97;;;;;;;10.38;51.60;94862.47;2617486;47;20153;-78
2022/05/07 01:33:37;;;;;;;1.07;1.07;;;;;;;10.41;51.25;94878.13;2617831;39;20595;-78
2022/05/07 01:36:11;;;;;;;0.80;0.80;;;;;;;10.22;51.17;94860.50;2617593;47;20183;-78
2022/05/07 01:38:45;;;;;;;1.03;1.00;;;;;;;10.14;51.41;94865.09;2617332;47;20735;-78
2022/05/07 01:41:17;;;;;;;1.10;1.10;;;;;;;10.07;51.46;94852.13;2617479;47;20156;-82
2022/05/07 01:43:46;;;;;;;1.30;1.20;;;;;;;10.13;50.99;94852.31;2617664;47;20164;-82
2022/05/07 01:49:03;;;;;;;1.10;1.10;;;;;;;10.45;51.54;94904.50;2617675;47;20809;-78
2022/05/07 01:51:32;;;;;;;1.20;0.97;;;;;;;10.36;51.25;94890.72;2617733;47;20152;-82
2022/05/07 01:54:04;;;;;;;1.23;1.23;;;;;;;10.21;51.35;94873.22;2617666;54;20152;-82
2022/05/07 01:56:33;;;;;;;0.93;0.77;;;;;;;10.19;51.41;94878.78;2617870;54;20149;-82
2022/05/07 01:59:01;;;;;;;1.03;1.03;;;;;;;10.35;51.51;94895.66;2617928;54;20671;-82
2022/05/07 02:01:30;;;;;;;1.13;1.03;;;;;;;10.32;52.29;94899.78;2617467;54;20179;-78
2022/05/07 02:03:59;;;;;;;0.80;0.80;;;;;;;9.84;52.19;94842.78;2617246;54;20707;-79
2022/05/07 02:06:28;;;;;;;1.30;1.30;;;;;;;10.33;51.96;94898.41;2617556;47;20172;-78
2022/05/07 02:09:01;;;;;;;1.10;0.80;;;;;;;9.96;52.48;94863.06;2617209;54;20244;-78
2022/05/07 02:11:36;;;;;;;0.70;0.70;;;;;;;10.07;53.79;94855.66;2617703;54;20141;-78
2022/05/07 02:14:05;;;;;;;1.07;1.07;;;;;;;10.43;51.99;94912.94;2617377;54;20175;-79
2022/05/07 02:16:34;;;;;;;1.17;1.17;;;;;;;10.90;53.46;94906.84;2617522;47;20152;-82
2022/05/07 02:19:03;;;;;;;0.93;0.93;;;;;;;10.65;51.50;94879.75;2617593;47;20145;-82
2022/05/07 02:21:31;;;;;;;1.93;1.30;;;;;;;10.71;51.27;94870.00;2617852;54;20160;-82
2022/05/07 02:24:00;;;;;;;1.47;1.37;;;;;;;10.95;52.32;94910.53;2617634;54;20165;-82
2022/05/07 02:26:29;;;;;;;0.57;0.57;;;;;;;11.18;52.72;94912.75;2617827;47;20165;-82
2022/05/07 02:29:00;;;;;;;3.70;0.80;;;;;;;11.39;50.92;94906.38;2617421;47;20695;-82
2022/05/07 02:31:35;;;;;;;1.73;1.33;;;;;;;10.52;52.17;94888.47;2617513;54;20244;-82
2022/05/07 02:34:07;;;;;;;1.00;0.90;;;;;;;10.99;53.38;94919.19;2604300;54;20251;-83
2022/05/07 02:36:36;;;;;;;2.27;0.80;;;;;;;10.06;53.47;94878.97;2617611;47;20145;-83
2022/05/07 02:44:30;;;;;;;2.50;1.03;;;;;;;10.71;56.01;94923.84;2617869;39;20211;-83
2022/05/07 02:46:58;;;;;;;1.37;1.27;;;;;;;10.42;53.50;94905.81;2617361;47;20168;-79
2022/05/07 02:49:27;;;;;;;1.50;1.40;;;;;;;9.99;55.05;94935.31;2617146;47;20176;-78
2022/05/07 02:51:56;;;;;;;0.80;0.80;;;;;;;9.88;55.49;94927.06;2617372;47;20172;-82
2022/05/07 02:54:25;;;;;;;2.93;0.90;;;;;;;9.99;56.74;94892.88;2617806;39;20568;-83
2022/05/07 02:56:53;;;;;;;0.80;0.80;;;;;;;10.99;55.20;94930.50;2617587;47;20153;-82
2022/05/07 02:59:23;;;;;;;0.77;0.77;;;;;;;11.09;53.66;94928.03;2618202;39;20625;-83
2022/05/07 03:01:59;;;;;;;1.03;1.03;;;;;;;10.67;53.62;94932.91;2617076;54;20195;-78
2022/05/07 03:04:33;;;;;;;1.00;1.00;;;;;;;11.12;52.78;94928.81;2617692;46;20616;-79
2022/05/07 03:07:02;;;;;;;1.13;1.13;;;;;;;11.31;53.77;94933.75;2617289;47;20160;-84
2022/05/07 03:09:31;;;;;;;0.90;0.90;;;;;;;11.36;52.41;94919.03;2617768;47;20152;-83
2022/05/07 03:12:00;;;;;;;0.87;0.87;;;;;;;11.47;51.29;94931.47;2617783;39;20350;-83
2022/05/07 03:14:28;;;;;;;0.97;0.97;;;;;;;11.58;53.34;94926.84;2617230;54;20718;-82
2022/05/07 03:17:00;;;;;;;1.93;1.33;;;;;;;11.34;51.17;94884.94;2617414;54;20152;-83
2022/05/07 03:19:29;;;;;;;0.90;0.90;;;;;;;11.34;52.66;94926.75;2618100;54;20145;-82
2022/05/07 03:21:58;;;;;;;1.40;1.33;;;;;;;10.50;54.02;94917.44;2617472;54;20157;-84
2022/05/07 03:24:37;;;;;;;;;;;;;;;;;;;;;
2022/05/07 03:27:07;;;;;;;1.07;1.07;;;;;;;10.89;52.84;94927.31;2617435;54;20153;-84
2022/05/07 03:29:36;;;;;;;0.70;0.70;;;;;;;11.12;53.72;94918.22;2617778;39;20540;-84
2022/05/07 03:32:09;;;;;;;2.07;1.93;;;;;;;11.26;52.99;94898.84;2617343;47;20157;-83
2022/05/07 03:34:38;;;;;;;1.53;0.80;;;;;;;12.76;52.43;94900.63;2617278;47;20161;-83
2022/05/07 03:37:07;;;;;;;1.00;1.00;;;;;;;12.41;51.84;94895.38;2617077;54;20679;-84
2022/05/07 03:39:36;;;;;;;1.13;1.13;;;;;;;13.50;49.05;94918.28;2617230;54;20161;-83
2022/05/07 03:42:12;;;;;;;0.80;0.80;;;;;;;13.64;49.37;94923.59;2617344;47;20149;-79
2022/05/07 03:44:41;;;;;;;1.33;1.23;;;;;;;13.58;47.53;94880.03;2617011;47;20735;-79
2022/05/07 03:47:12;;;;;;;0.93;0.93;;;;;;;13.75;48.92;94894.00;2617228;54;20145;-79
2022/05/07 03:49:41;;;;;;;1.20;1.20;;;;;;;13.34;47.48;94909.34;2616942;54;20161;-79
2022/05/07 03:54:55;;;;;;;0.90;0.90;;;;;;;13.13;48.40;94913.00;2617180;54;20153;-84
2022/05/07 03:57:24;;;;;;;1.07;1.00;;;;;;;13.31;48.05;94932.69;2617223;47;20168;-79
2022/05/07 03:59:53;;;;;;;1.00;1.00;;;;;;;13.98;49.64;94943.63;2617553;39;20549;-79
2022/05/07 04:02:25;;;;;;;1.20;1.20;;;;;;;14.24;47.87;94903.66;2616958;54;20161;-83
2022/05/07 04:04:54;;;;;;;1.03;1.03;;;;;;;14.82;46.98;94955.53;2617160;54;20160;-84
2022/05/07 04:07:23;;;;;;;1.43;0.73;;;;;;;13.81;45.88;94896.97;2616828;54;20204;-84
2022/05/07 04:09:55;;;;;;;0.83;0.83;;;;;;;14.81;47.33;94965.50;2616853;47;20168;-84
2022/05/07 04:12:23;;;;;;;0.97;0.97;;;;;;;14.54;45.37;94966.31;2616981;47;20183;-84
2022/05/07 04:14:52;;;;;;;1.47;0.90;;;;;;;14.03;47.18;94970.09;2616892;47;20188;-84
2022/05/07 04:17:25;;;;;;;0.77;0.77;;;;;;;14.51;47.18;94917.09;2616949;54;20168;-84
2022/05/07 04:20:03;;;;;;;0.60;0.60;;;;;;;15.01;46.34;94916.72;2617740;54;20145;-84
2022/05/07 04:22:35;;;;;;;0.70;0.70;;;;;;;15.38;44.26;94972.34;2617883;39;20558;-84
2022/05/07 04:25:04;;;;;;;1.00;1.00;;;;;;;14.46;44.24;94961.19;2616708;47;20211;-84
2022/05/07 04:27:33;;;;;;;2.30;0.90;;;;;;;13.56;45.70;94928.34;2617415;39;20544;-84
2022/05/07 04:30:02;;;;;;;0.80;0.80;;;;;;;12.81;47.41;94898.63;2616865;54;20153;-84
2022/05/07 04:32:33;;;;;;;11.00;1.77;;;;;;;13.26;48.74;94957.47;2617071;39;20570;-84
2022/05/07 04:37:43;;;;;;;0.70;0.70;;;;;;;13.35;47.17;94888.03;2616646;54;20172;-81
2022/05/07 04:40:13;;;;;;;1.00;1.00;;;;;;;13.26;47.62;94948.91;2616956;47;20153;-80
2022/05/07 04:42:44;;;;;;;2.27;2.13;;;;;;;12.34;48.93;94890.91;2616583;46;20432;-81
2022/05/07 04:45:13;;;;;;;1.43;1.33;;;;;;;12.42;49.69;94960.03;2616581;47;20203;-81
2022/05/07 04:47:47;;;;;;;1.23;1.23;;;;;;;11.13;51.83;94873.59;2616846;47;20175;-78
2022/05/07 04:50:21;;;;;;;0.80;0.80;;;;;;;12.20;51.57;94952.94;2618019;39;20542;-78
2022/05/07 04:52:51;;;;;;;3.30;2.37;;;;;;;11.99;51.33;94957.28;2617471;47;20383;-81
2022/05/07 04:55:19;;;;;;;1.43;1.33;;;;;;;12.41;50.29;94937.97;2617695;54;20157;-81
2022/05/07 04:57:48;;;;;;;1.40;1.30;;;;;;;12.50;49.84;94938.94;2616369;54;20180;-80
2022/05/07 05:00:18;;;;;;;0.93;0.93;;;;;;;12.50;49.79;94928.31;2616567;54;20181;-81
2022/05/07 05:02:51;;;;;;;1.77;1.67;;;;;;;12.29;50.86;94952.53;2618214;39;20238;-81
2022/05/07 05:05:19;;;;;;;1.67;1.57;;;;;;;12.27;50.47;94951.75;2617608;47;20153;-81
2022/05/07 05:10:33;;;;;;;1.00;1.00;;;;;;;13.24;48.95;94926.13;2615375;46;20203;-81
2022/05/07 05:13:02;;;;;;;1.33;1.23;;;;;;;13.30;48.28;94960.41;2616934;47;20275;-80
2022/05/07 05:15:31;;;;;;;1.07;1.07;;;;;;;13.12;48.91;94963.47;2617685;54;20157;-81
2022/05/07 05:21:55;;;;;;;1.50;1.40;;;;;;;12.07;51.22;94966.75;2617303;47;20187;-78
2022/05/07 05:27:08;;;;;;;9.00;1.70;;;;;;;11.97;50.59;94866.38;2617576;46;20204;-79
2022/05/07 05:35:51;;;;;;;2.87;2.03;;;;;;;12.82;48.13;94908.63;2616621;47;20198;-80
2022/05/07 05:38:32;;;;;;;1.30;1.20;;;;;;;13.34;48.42;94928.53;2617577;54;20156;-80
2022/05/07 05:41:08;;;;;;;2.85;1.60;;;;;;;14.18;46.80;94932.72;2616636;47;20391;-78
2022/05/07 05:43:40;;;;;;;1.45;1.35;;;;;;;13.11;47.40;94851.13;2616673;47;20399;-79
2022/05/07 05:46:08;;;;;;;1.60;1.50;;;;;;;11.84;46.66;94686.50;2617684;54;20164;-79
2022/05/07 05:48:37;;;;;;;1.27;1.27;;;;;;;13.60;47.60;94971.16;2616703;47;20169;-81
2022/05/07 05:51:07;;;;;;;1.60;1.50;;;;;;;13.62;47.57;94977.63;2617187;47;20665;-79
2022/05/07 05:53:51;;;;;;;1.13;1.13;;;;;;;13.29;47.95;94893.53;2617914;47;20661;-81
2022/05/07 05:56:20;;;;;;;1.53;1.50;;;;;;;14.47;46.34;94970.44;2616808;47;20172;-81
2022/05/07 05:58:49;;;;;;;1.00;1.00;;;;;;;14.58;45.43;94972.13;2617581;47;20167;-78
2022/05/07 06:01:18;;;;;;;1.53;1.43;;;;;;;14.31;45.86;94961.50;2617609;47;20169;-81
2022/05/07 06:03:47;;;;;;;1.50;1.40;;;;;;;14.87;45.02;94979.16;2617493;54;20403;-81
2022/05/07 06:06:15;;;;;;;1.43;1.33;;;;;;;14.59;45.74;94979.28;2617618;46;20655;-81
2022/05/07 06:08:56;;;;;;;1.50;1.47;;;;;;;13.90;47.44;94974.78;2617766;54;20722;-81
2022/05/07 06:17:50;;;;;;;1.57;1.47;;;;;;;15.03;43.55;94887.50;2616334;47;20173;-80
2022/05/07 06:20:19;;;;;;;5.53;1.33;;;;;;;15.98;43.06;94972.75;2617761;54;20703;-80
2022/05/07 06:22:47;;;;;;;1.13;1.13;;;;;;;16.49;44.02;94973.53;2617695;54;20156;-81
2022/05/07 06:28:07;;;;;;;3.93;1.87;;;;;;;17.15;42.49;94975.16;2617713;47;20156;-80
2022/05/07 06:30:36;;;;;;;1.47;1.23;;;;;;;16.81;41.56;94984.03;2617414;54;20161;-81
2022/05/07 06:33:05;;;;;;;1.50;1.40;;;;;;;15.67;43.66;94955.75;2617577;54;20169;-78
2022/05/07 06:35:35;;;;;;;5.10;1.50;;;;;;;15.80;44.71;94966.72;2617625;47;20782;-79
2022/05/07 06:38:04;;;;;;;1.40;1.40;;;;;;;16.65;42.81;94973.09;2617555;47;20165;-81
2022/05/07 06:40:37;;;;;;;1.53;1.53;;;;;;;16.94;41.84;94979.91;2617713;54;20175;-80
2022/05/07 06:43:10;;;;;;;1.93;0.93;;;;;;;16.57;42.89;94970.06;2617438;47;20165;-79
2022/05/07 06:45:45;;;;;;;1.83;1.60;;;;;;;15.95;43.49;94973.41;2617599;47;20149;-78
2022/05/07 06:48:14;;;;;;;1.53;1.43;;;;;;;15.16;45.16;94978.34;2617532;54;20760;-80
2022/05/07 06:50:44;;;;;;;2.10;1.60;;;;;;;15.52;45.56;94972.59;2617598;54;20176;-79
2022/05/07 06:53:12;;;;;;;5.43;1.40;;;;;;;16.61;43.91;94975.84;2617653;54;20157;-78
2022/05/07 06:58:26;;;;;;;1.57;1.47;;;;;;;16.11;43.46;94910.81;2617945;39;20558;-78
2022/05/07 07:00:57;;;;;;;1.43;1.33;;;;;;;15.92;44.10;94958.34;2616968;54;20276;-79
2022/05/07 07:03:26;;;;;;;1.50;1.40;;;;;;;15.63;44.93;94939.28;2617594;54;20272;-80
2022/05/07 07:05:58;;;;;;;2.97;1.00;;;;;;;16.23;43.76;94951.00;2616140;54;20679;-80
2022/05/07 07:08:29;;;;;;;1.57;1.47;;;;;;;14.95;45.89;94890.91;2615748;54;20199;-80
2022/05/07 07:11:01;;;;;;;4.50;1.43;;;;;;;15.31;44.53;94887.31;2615262;54;20160;-78
2022/05/07 07:13:44;;;;;;;0.90;0.90;;;;;;;16.01;43.93;94942.06;2617425;54;20161;-80
2022/05/07 07:16:14;;;;;;;1.20;1.13;;;;;;;16.02;43.44;94919.91;2618674;39;20566;-80
2022/05/07 07:18:44;;;;;;;6.70;1.47;;;;;;;15.78;44.79;94948.81;2618184;54;20149;-80
2022/05/07 07:21:14;;;;;;;1.73;1.23;;;;;;;15.58;44.28;94887.09;2617751;54;20161;-80
2022/05/07 07:23:43;;;;;;;3.00;1.33;;;;;;;16.17;43.51;94902.31;2618426;39;20536;-80
2022/05/07 07:30:01;;;;;;;1.20;1.10;;;;;;;16.57;41.88;94887.88;2616351;47;20185;-79
2022/05/07 07:32:30;;;;;;;1.57;1.47;;;;;;;16.55;44.17;94945.03;2616421;54;20783;-78
2022/05/07 07:34:58;;;;;;;2.77;1.20;;;;;;;17.00;42.34;94949.22;2617756;39;20495;-79
2022/05/07 07:37:28;;;;;;;1.20;1.20;;;;;;;17.06;41.30;94917.13;2617971;54;20703;-82
2022/05/07 07:40:00;;;;;;;1.17;1.10;;;;;;;16.12;43.05;94915.09;2617557;39;21001;-79
2022/05/07 07:42:34;;;;;;;1.60;1.50;;;;;;;16.39;42.17;94872.63;2616949;47;20276;-77
2022/05/07 07:48:10;;;;;;;1.80;1.38;;;;;;;17.48;39.83;94919.72;2616508;47;20400;-76
2022/05/07 07:50:42;;;;;;;1.10;1.10;;;;;;;17.53;40.67;94909.75;2617131;54;20161;-77
2022/05/07 07:53:14;;;;;;;1.20;1.07;;;;;;;18.40;39.94;94933.44;2617209;47;20153;-80
2022/05/07 07:55:42;;;;;;;2.60;1.40;;;;;;;17.88;40.50;94938.75;2616764;47;20165;-76
2022/05/07 08:01:38;;;;;;;1.43;1.43;;;;;;;15.29;42.22;94788.13;2616794;47;20177;-77
2022/05/07 08:04:08;;;;;;;3.07;1.93;;;;;;;16.78;43.34;94934.66;2616490;47;20172;-78
2022/05/07 08:12:37;;;;;;;1.60;1.50;;;;;;;17.50;40.74;94884.66;2616669;39;20668;-78
2022/05/07 08:15:07;;;;;;;1.07;1.07;;;;;;;16.80;41.84;94913.94;2617465;47;20168;-79
2022/05/07 08:17:46;;;;;;;1.63;1.53;;;;;;;17.02;42.04;94937.81;2617311;47;20165;-80
2022/05/07 08:20:18;;;;;;;3.87;1.73;;;;;;;17.53;41.97;94931.94;2617317;54;20157;-79
2022/05/07 08:22:47;;;;;;;1.60;1.50;;;;;;;17.74;40.04;94919.28;2617375;47;20680;-79
2022/05/07 08:25:16;;;;;;;1.17;1.03;;;;;;;17.66;40.86;94870.50;2617836;54;20169;-78
2022/05/07 08:27:45;;;;;;;1.50;1.40;;;;;;;17.92;39.90;94892.94;2616508;46;20431;-78
2022/05/07 08:30:15;;;;;;;1.40;1.30;;;;;;;17.57;40.61;94929.84;2618256;54;20148;-78
2022/05/07 08:32:47;;;;;;;0.97;0.97;;;;;;;17.25;41.42;94938.06;2618663;39;20552;-81
2022/05/07 08:35:18;;;;;;;1.40;1.30;;;;;;;16.95;41.11;94901.94;2618324;47;20212;-78
2022/05/07 08:38:04;;;;;;;1.50;1.47;;;;;;;17.07;41.26;94932.88;2617680;54;20168;-79
2022/05/07 08:40:57;;;;;;;3.23;1.10;;;;;;;16.53;41.83;94939.28;2618125;54;20684;-78
2022/05/07 08:43:26;;;;;;;2.13;1.87;;;;;;;16.48;41.95;94914.91;2617319;54;20432;-81
2022/05/07 08:45:55;;;;;;;1.60;1.50;;;;;;;17.23;41.20;94935.19;2617784;54;20145;-82
2022/05/07 08:48:34;;;;;;;1.27;1.17;;;;;;;17.07;39.81;94918.56;2618383;47;20668;-82
2022/05/07 08:51:11;;;;;;;2.17;1.20;;;;;;;16.80;39.91;94863.16;2618137;54;20181;-79
2022/05/07 08:53:40;;;;;;;1.07;0.97;;;;;;;17.50;39.63;94911.13;2618131;54;20770;-76
2022/05/07 08:56:17;;;;;;;1.33;1.23;;;;;;;17.22;41.51;94916.59;2617961;47;20160;-80
2022/05/07 08:58:50;;;;;;;1.37;1.27;;;;;;;16.84;41.61;94874.66;2618214;54;20153;-84
2022/05/07 09:01:19;;;;;;;0.90;0.90;;;;;;;16.96;39.78;94866.19;2617885;47;20167;-80
2022/05/07 09:03:52;;;;;;;2.20;1.37;;;;;;;17.09;40.07;94904.25;2617758;54;20153;-81
2022/05/07 09:06:35;;;;;;;2.03;1.00;;;;;;;16.81;39.58;94876.03;2617918;46;20199;-82
2022/05/07 09:11:54;;;;;;;1.90;0.93;;;;;;;17.11;39.74;94846.31;2618266;47;20145;-82
2022/05/07 09:14:22;;;;;;;1.00;0.97;;;;;;;17.15;38.96;94867.13;2618125;47;20153;-82
2022/05/07 09:16:51;;;;;;;0.60;0.60;;;;;;;17.75;38.86;94927.19;2617960;47;20691;-78
2022/05/07 09:19:34;;;;;;;1.10;1.03;;;;;;;17.28;39.11;94857.25;2587459;47;20161;-78
2022/05/07 09:22:11;;;;;;;0.90;0.90;;;;;;;17.98;39.79;94913.03;2618261;54;20252;-78
2022/05/07 09:24:41;;;;;;;1.63;1.03;;;;;;;18.34;36.64;94898.97;2618094;46;20176;-79
2022/05/07 09:27:18;;;;;;;1.27;0.93;;;;;;;18.56;35.93;94883.34;2618103;54;20155;-79
2022/05/07 09:30:12;;;;;;;0.87;0.73;;;;;;;18.96;36.30;94920.88;2617891;54;20157;-79
2022/05/07 09:32:44;;;;;;;0.70;0.70;;;;;;;18.96;34.42;94822.56;2617856;54;20148;-79
2022/05/07 09:39:06;;;;;;;1.20;1.20;;;;;;;17.30;35.91;94690.53;2615903;47;20248;-82
2022/05/07 09:44:29;;;;;;;1.00;1.00;;;;;;;17.28;36.74;94690.50;2616853;47;20161;-81
2022/05/07 09:47:09;;;;;;;0.83;0.83;;;;;;;18.61;36.80;94815.97;2616291;39;20565;-81
2022/05/07 09:50:19;;;;;;;1.00;1.00;;;;;;;19.61;36.19;94883.03;2616879;47;20156;-82
2022/05/07 09:57:30;;;;;;;1.37;1.00;;;;;;;20.17;35.29;94879.47;2617054;47;20187;-81
2022/05/07 09:58:16;;;;;;;2.03;1.30;;;;;;;19.60;36.54;94876.56;2616525;47;20175;-76
2022/05/07 10:01:05;;;;;;;0.63;0.63;;;;;;;20.05;36.16;94879.47;2617691;39;20546;-77
2022/05/07 10:03:45;;;;;;;1.00;1.00;;;;;;;19.35;35.42;94864.28;2617430;46;20176;-82
2022/05/07 10:06:33;;;;;;;1.50;0.80;;;;;;;19.83;34.09;94872.28;2617667;54;20149;-81
2022/05/07 10:09:23;;;;;;;1.07;1.07;;;;;;;19.48;34.72;94850.69;2617554;54;20204;-81
2022/05/07 10:12:38;;;;;;;0.90;0.90;;;;;;;18.73;32.62;94761.50;2617408;54;20152;-88
2022/05/07 10:15:09;;;;;;;1.87;1.20;;;;;;;19.55;34.95;94826.28;2618193;47;20161;-84
2022/05/07 10:17:38;;;;;;;1.10;1.10;;;;;;;19.73;32.97;94865.81;2617297;47;20183;-83
2022/05/07 10:20:16;;;;;;;2.20;1.10;;;;;;;19.83;33.77;94840.66;2617288;47;20179;-80
2022/05/07 10:23:02;;;;;;;1.30;1.20;;;;;;;19.64;32.78;94844.25;2617530;54;20640;-82
2022/05/07 10:25:34;;;;;;;1.80;0.97;;;;;;;18.95;33.23;94844.81;2617619;54;20149;-81
2022/05/07 10:28:21;;;;;;;0.93;0.93;;;;;;;19.03;33.88;94847.69;2617266;47;20153;-79
2022/05/07 10:30:56;;;;;;;0.73;0.73;;;;;;;19.02;32.83;94852.00;2617748;39;20559;-81
2022/05/07 10:33:25;;;;;;;0.87;0.87;;;;;;;18.84;33.81;94834.00;2617307;54;20171;-80
2022/05/07 10:38:42;;;;;;;0.63;0.60;;;;;;;18.17;31.21;94731.19;2617921;31;20621;-80
2022/05/07 10:41:32;;;;;;;4.50;0.80;;;;;;;17.28;31.57;94598.91;2617264;47;20243;-81
2022/05/07 10:44:37;;;;;;;0.83;0.83;;;;;;;17.66;33.70;94653.56;2617852;46;21063;-79
2022/05/07 10:47:14;;;;;;;0.93;0.90;;;;;;;19.33;31.56;94801.09;2616820;47;20145;-79
2022/05/07 10:49:56;;;;;;;1.10;0.93;;;;;;;18.63;31.14;94795.91;2617634;39;20528;-79
2022/05/07 10:52:44;;;;;;;1.30;1.20;;;;;;;19.15;30.65;94804.66;2617305;47;20169;-79
2022/05/07 10:55:16;;;;;;;1.30;1.20;;;;;;;19.22;31.73;94824.78;2617278;47;20160;-79
2022/05/07 10:57:47;;;;;;;0.80;0.80;;;;;;;18.74;31.70;94811.72;2617269;47;20248;-79
2022/05/07 11:00:27;;;;;;;1.37;1.23;;;;;;;18.33;32.02;94779.97;2617428;47;20172;-80
2022/05/07 11:03:01;;;;;;;3.30;1.23;;;;;;;18.40;31.71;94812.28;2617459;47;20180;-81
2022/05/07 11:05:45;;;;;;;0.77;0.70;;;;;;;18.40;32.28;94795.78;2617434;47;20704;-81
2022/05/07 11:08:14;;;;;;;1.27;1.23;;;;;;;17.07;31.82;94586.63;2617012;47;20191;-81
2022/05/07 11:10:43;;;;;;;0.83;0.83;;;;;;;18.02;32.83;94770.50;2617398;54;20152;-84
2022/05/07 11:13:14;;;;;;;1.30;1.20;;;;;;;18.52;32.73;94780.06;2619060;31;20774;-83
2022/05/07 11:16:06;;;;;;;0.60;0.60;;;;;;;19.13;30.20;94812.56;2617253;54;20145;-82
2022/05/07 11:19:09;;;;;;;0.87;0.87;;;;;;;18.54;29.20;94722.72;2617010;54;20160;-84
2022/05/07 11:24:28;;;;;;;1.13;1.07;;;;;;;18.26;27.60;94645.91;2617132;47;20153;-79
2022/05/07 11:26:59;;;;;;;0.67;0.60;;;;;;;19.80;27.71;94810.50;2617526;47;20187;-78
2022/05/07 11:29:29;;;;;;;2.45;0.80;;;;;;;19.94;22.56;94809.78;2617321;54;20384;-84
2022/05/07 11:32:19;;;;;;;0.87;0.87;;;;;;;20.10;22.27;94803.25;2617946;54;20149;-82
2022/05/07 11:35:00;;;;;;;0.70;0.70;;;;;;;20.40;23.04;94796.75;2617117;47;20153;-82
2022/05/07 11:49:17;;;;;;;3.93;0.70;;;;;;;19.15;25.14;94701.31;2617312;47;20160;-85
2022/05/07 11:51:46;;;;;;;0.63;0.63;;;;;;;19.64;25.48;94763.81;2617135;47;20160;-85
2022/05/07 11:54:15;;;;;;;2.87;1.27;;;;;;;19.59;26.54;94785.34;2617113;54;20152;-85
2022/05/07 11:56:59;;;;;;;0.65;0.65;;;;;;;20.18;25.84;94777.38;2617166;47;20145;-83
2022/05/07 11:59:28;;;;;;;0.80;0.80;;;;;;;19.40;25.77;94784.63;2617001;54;20192;-83
2022/05/07 12:01:57;;;;;;;1.27;1.27;;;;;;;19.47;26.10;94760.91;2617161;54;20691;-84
2022/05/07 12:04:46;;;;;;;0.70;0.70;;;;;;;19.33;27.16;94777.41;2617130;54;20149;-82
2022/05/07 12:07:15;;;;;;;0.83;0.83;;;;;;;17.93;27.40;94544.78;2617038;47;20149;-80
2022/05/07 12:09:59;;;;;;;0.77;0.77;;;;;;;18.88;27.92;94661.81;2616299;47;20195;-83
2022/05/07 12:12:31;;;;;;;0.67;0.67;;;;;;;19.03;27.63;94663.28;2617079;47;20152;-85
2022/05/07 12:15:12;;;;;;;;;;;;;;;;;;;;;
2022/05/07 12:20:53;;;;;;;2.27;1.10;;;;;;;17.71;26.37;94534.72;2617060;47;20141;-84
2022/05/07 12:31:50;;;;;;;1.03;1.03;;;;;;;17.65;22.33;94580.50;2616687;47;20196;-83
2022/05/07 12:34:19;;;;;;;0.70;0.70;;;;;;;17.97;23.68;94588.50;2616243;54;20412;-78
2022/05/07 12:36:51;;;;;;;0.57;0.57;;;;;;;19.23;22.87;94774.53;2615199;47;20195;-81
2022/05/07 12:39:20;;;;;;;0.90;0.90;;;;;;;19.19;21.85;94763.75;2616704;47;20161;-81
2022/05/07 12:41:49;;;;;;;1.10;1.00;;;;;;;19.08;20.53;94751.56;2612570;39;20627;-79
2022/05/07 12:44:28;;;;;;;;;;;;;;;;;;;;;
2022/05/07 12:46:58;;;;;;;1.33;0.80;;;;;;;18.90;21.66;94688.38;2615898;54;20182;-82
2022/05/07 12:49:27;;;;;;;0.70;0.70;;;;;;;19.13;22.12;94755.84;2616309;47;20252;-82
2022/05/07 12:51:59;;;;;;;0.50;0.50;;;;;;;19.00;22.76;94742.19;2616157;47;20161;-80
2022/05/07 12:54:28;;;;;;;0.60;0.60;;;;;;;18.72;22.21;94674.72;2616979;39;20541;-79
2022/05/07 12:56:57;;;;;;;1.00;1.00;;;;;;;19.35;22.33;94748.69;2616989;39;20559;-78
2022/05/07 12:59:25;;;;;;;0.40;0.40;;;;;;;19.18;22.56;94699.16;2616519;54;20196;-80
2022/05/07 13:02:06;;;;;;;4.73;1.03;;;;;;;19.68;22.25;94752.31;2616337;54;20256;-85
2022/05/07 13:04:35;;;;;;;0.93;0.93;;;;;;;19.32;24.72;94747.97;2615949;54;20259;-85
2022/05/07 13:07:16;;;;;;;1.17;1.07;;;;;;;18.94;26.08;94648.22;2616197;54;20173;-83
2022/05/07 13:09:45;;;;;;;6.50;1.60;;;;;;;19.28;25.79;94732.91;2616635;46;20711;-80
2022/05/07 13:12:14;;;;;;;0.93;0.93;;;;;;;18.77;26.05;94727.81;2617025;47;20161;-80
2022/05/07 13:14:55;;;;;;;0.43;0.43;;;;;;;19.34;26.63;94744.38;2616464;54;20677;-82
2022/05/07 13:17:24;;;;;;;0.70;0.70;;;;;;;18.43;25.45;94658.88;2616720;54;20168;-81
2022/05/07 13:19:53;;;;;;;2.63;1.87;;;;;;;18.80;26.20;94703.44;2617171;54;20160;-81
2022/05/07 13:22:57;;;;;;;1.70;1.60;;;;;;;19.02;24.21;94716.38;2617186;47;20153;-80
2022/05/07 13:25:29;;;;;;;0.80;0.80;;;;;;;19.24;24.24;94696.31;2616987;54;20179;-81
2022/05/07 13:27:58;;;;;;;2.53;1.27;;;;;;;18.45;24.19;94625.16;2617204;47;20161;-81
2022/05/07 13:30:27;;;;;;;0.60;0.60;;;;;;;18.98;24.87;94705.63;2617323;54;20145;-82
2022/05/07 13:32:57;;;;;;;1.03;1.03;;;;;;;19.05;25.32;94724.28;2617052;47;20287;-81
2022/05/07 13:35:26;;;;;;;0.97;0.97;;;;;;;19.28;24.97;94721.41;2617236;54;20161;-80
2022/05/07 13:37:57;;;;;;;2.00;0.87;;;;;;;18.69;25.01;94681.19;2617098;54;20169;-81
2022/05/07 13:40:27;;;;;;;0.80;0.80;;;;;;;19.08;25.44;94722.13;2617273;47;20161;-81
2022/05/07 13:43:02;;;;;;;0.83;0.80;;;;;;;18.69;25.05;94636.00;2617014;47;20700;-80
2022/05/07 13:45:36;;;;;;;1.23;1.10;;;;;;;19.01;25.40;94691.97;2617224;54;20145;-80
2022/05/07 13:48:07;;;;;;;2.57;1.40;;;;;;;18.89;25.53;94669.00;2617104;54;20171;-80